DAL2899 KAUS-KATL
Flight info
| Callsign | DAL2899 |
|---|---|
| Flight time | 1h 53m |
| Altitude | 37000 |
| Route | ILEXY4 ZENZI LFK AEX MERDN ORRKK HOBTT2 |
| Aircraft | A321/M-SDE3FGHIRWY/LB1 |
Departure
| Time | 2026-05-06 16:46 |
|---|---|
| Airport | Austin Bergstrom International Airport (KAUS) |
Arrival
| Time | 2026-05-06 18:40 |
|---|---|
| Airport | Hartsfield Jackson Atlanta International Airport (KATL) |
| Time | Latitude | Longitude | Altitude | Speed | Heading |
|---|---|---|---|---|---|
| 2026-05-06 16:09 | 30.20165 | -97.66359 | 528 ft | 0 kts | 359° |
| 2026-05-06 16:20 | 30.20164 | -97.66359 | 528 ft | 0 kts | 359° |
| 2026-05-06 16:36 | 30.20160 | -97.66359 | 527 ft | 2 kts | 359° |
| 2026-05-06 16:36 | 30.20142 | -97.66359 | 527 ft | 3 kts | 6° |
| 2026-05-06 16:36 | 30.20122 | -97.66363 | 516 ft | 3 kts | 17° |
| 2026-05-06 16:36 | 30.20104 | -97.66372 | 527 ft | 3 kts | 39° |
| 2026-05-06 16:37 | 30.20093 | -97.66384 | 527 ft | 2 kts | 75° |
| 2026-05-06 16:37 | 30.20092 | -97.66388 | 527 ft | 1 kts | 84° |
| 2026-05-06 16:37 | 30.20092 | -97.66390 | 527 ft | 1 kts | 86° |
| 2026-05-06 16:37 | 30.20092 | -97.66391 | 527 ft | 0 kts | 86° |
| 2026-05-06 16:39 | 30.20092 | -97.66385 | 527 ft | 6 kts | 86° |
| 2026-05-06 16:39 | 30.20095 | -97.66252 | 527 ft | 24 kts | 89° |
| 2026-05-06 16:39 | 30.20101 | -97.66115 | 527 ft | 3 kts | 89° |
| 2026-05-06 16:40 | 30.20118 | -97.66100 | 527 ft | 4 kts | 355° |
| 2026-05-06 16:40 | 30.20113 | -97.66128 | 527 ft | 8 kts | 239° |
| 2026-05-06 16:40 | 30.20096 | -97.66227 | 527 ft | 18 kts | 268° |
| 2026-05-06 16:40 | 30.20090 | -97.66376 | 527 ft | 19 kts | 252° |
| 2026-05-06 16:41 | 30.19979 | -97.66396 | 527 ft | 20 kts | 178° |
| 2026-05-06 16:41 | 30.19917 | -97.66267 | 527 ft | 26 kts | 89° |
| 2026-05-06 16:41 | 30.19921 | -97.66057 | 527 ft | 25 kts | 88° |
| 2026-05-06 16:41 | 30.19877 | -97.65906 | 527 ft | 19 kts | 169° |
| 2026-05-06 16:42 | 30.19758 | -97.65900 | 527 ft | 16 kts | 178° |
| 2026-05-06 16:42 | 30.19621 | -97.65897 | 527 ft | 24 kts | 179° |
| 2026-05-06 16:42 | 30.19441 | -97.65892 | 528 ft | 26 kts | 179° |
| 2026-05-06 16:42 | 30.19275 | -97.65888 | 528 ft | 21 kts | 178° |
| 2026-05-06 16:43 | 30.19138 | -97.65884 | 528 ft | 18 kts | 179° |
| 2026-05-06 16:43 | 30.19025 | -97.65881 | 528 ft | 15 kts | 179° |
| 2026-05-06 16:43 | 30.18929 | -97.65879 | 528 ft | 16 kts | 179° |
| 2026-05-06 16:43 | 30.18774 | -97.65876 | 528 ft | 27 kts | 179° |
| 2026-05-06 16:44 | 30.18589 | -97.65872 | 527 ft | 25 kts | 178° |
| 2026-05-06 16:44 | 30.18436 | -97.65864 | 527 ft | 19 kts | 177° |
| 2026-05-06 16:44 | 30.18313 | -97.65862 | 527 ft | 16 kts | 182° |
| 2026-05-06 16:44 | 30.18189 | -97.65865 | 527 ft | 20 kts | 177° |
| 2026-05-06 16:45 | 30.18046 | -97.65859 | 527 ft | 16 kts | 171° |
| 2026-05-06 16:45 | 30.18003 | -97.65777 | 526 ft | 12 kts | 93° |
| 2026-05-06 16:45 | 30.18059 | -97.65732 | 525 ft | 12 kts | 359° |
| 2026-05-06 16:45 | 30.18276 | -97.65736 | 526 ft | 63 kts | 359° |
| 2026-05-06 16:46 | 30.18655 | -97.65744 | 528 ft | 101 kts | 359° |
| 2026-05-06 16:46 | 30.19534 | -97.65768 | 533 ft | 149 kts | 358° |
| 2026-05-06 16:46 | 30.20607 | -97.65804 | 1015 ft | 155 kts | 0° |
| 2026-05-06 16:46 | 30.21734 | -97.65861 | 1406 ft | 174 kts | 358° |
| 2026-05-06 16:47 | 30.23020 | -97.65912 | 1717 ft | 194 kts | 6° |
| 2026-05-06 16:47 | 30.24315 | -97.65307 | 1808 ft | 216 kts | 41° |
| 2026-05-06 16:47 | 30.25098 | -97.63753 | 2097 ft | 237 kts | 72° |
| 2026-05-06 16:47 | 30.25573 | -97.61896 | 2704 ft | 243 kts | 73° |
| 2026-05-06 16:48 | 30.26045 | -97.60003 | 3313 ft | 246 kts | 74° |
| 2026-05-06 16:48 | 30.26536 | -97.58025 | 3748 ft | 262 kts | 74° |
| 2026-05-06 16:48 | 30.27049 | -97.55970 | 4476 ft | 267 kts | 74° |
| 2026-05-06 16:48 | 30.27571 | -97.53887 | 5229 ft | 271 kts | 74° |
| 2026-05-06 16:49 | 30.28100 | -97.51779 | 5961 ft | 276 kts | 75° |
| 2026-05-06 16:49 | 30.28633 | -97.49657 | 6638 ft | 281 kts | 75° |
| 2026-05-06 16:49 | 30.29184 | -97.47458 | 7239 ft | 288 kts | 75° |
| 2026-05-06 16:49 | 30.29759 | -97.45167 | 7847 ft | 295 kts | 75° |
| 2026-05-06 16:50 | 30.30333 | -97.42885 | 8424 ft | 303 kts | 75° |
| 2026-05-06 16:50 | 30.30926 | -97.40517 | 8995 ft | 310 kts | 75° |
| 2026-05-06 16:50 | 30.31534 | -97.38098 | 9551 ft | 317 kts | 75° |
| 2026-05-06 16:50 | 30.32158 | -97.35625 | 10047 ft | 325 kts | 75° |
| 2026-05-06 16:51 | 30.32809 | -97.33027 | 10191 ft | 347 kts | 76° |
| 2026-05-06 16:51 | 30.33498 | -97.30266 | 10327 ft | 367 kts | 75° |
| 2026-05-06 16:51 | 30.34218 | -97.27395 | 10761 ft | 375 kts | 75° |
| 2026-05-06 16:51 | 30.34955 | -97.24476 | 11319 ft | 380 kts | 75° |
| 2026-05-06 16:52 | 30.35631 | -97.21525 | 11875 ft | 383 kts | 82° |
| 2026-05-06 16:52 | 30.35878 | -97.18462 | 12463 ft | 383 kts | 94° |
| 2026-05-06 16:52 | 30.35721 | -97.15379 | 13071 ft | 386 kts | 98° |
| 2026-05-06 16:52 | 30.35526 | -97.12259 | 13693 ft | 390 kts | 98° |
| 2026-05-06 16:53 | 30.35335 | -97.09109 | 14241 ft | 394 kts | 98° |
| 2026-05-06 16:53 | 30.35150 | -97.05926 | 14766 ft | 399 kts | 98° |
| 2026-05-06 16:53 | 30.34965 | -97.02703 | 15294 ft | 403 kts | 98° |
| 2026-05-06 16:53 | 30.34778 | -96.99451 | 15818 ft | 407 kts | 98° |
| 2026-05-06 16:54 | 30.34588 | -96.96171 | 16335 ft | 411 kts | 99° |
| 2026-05-06 16:54 | 30.34393 | -96.92852 | 16859 ft | 415 kts | 99° |
| 2026-05-06 16:54 | 30.34194 | -96.89489 | 17375 ft | 420 kts | 99° |
| 2026-05-06 16:54 | 30.33992 | -96.86103 | 17890 ft | 424 kts | 99° |
| 2026-05-06 16:55 | 30.33786 | -96.82687 | 18365 ft | 428 kts | 99° |
| 2026-05-06 16:55 | 30.33573 | -96.79225 | 18790 ft | 433 kts | 99° |
| 2026-05-06 16:55 | 30.33357 | -96.75726 | 19232 ft | 436 kts | 99° |
| 2026-05-06 16:55 | 30.33137 | -96.72222 | 19654 ft | 440 kts | 99° |
| 2026-05-06 16:56 | 30.32914 | -96.68668 | 20099 ft | 444 kts | 99° |
| 2026-05-06 16:56 | 30.32691 | -96.65091 | 20531 ft | 447 kts | 99° |
| 2026-05-06 16:56 | 30.32469 | -96.61482 | 20954 ft | 451 kts | 99° |
| 2026-05-06 16:56 | 30.32244 | -96.57898 | 21369 ft | 454 kts | 99° |
| 2026-05-06 16:57 | 30.32011 | -96.54246 | 21741 ft | 458 kts | 99° |
| 2026-05-06 16:57 | 30.31776 | -96.50558 | 22163 ft | 462 kts | 99° |
| 2026-05-06 16:57 | 30.31538 | -96.46831 | 22591 ft | 465 kts | 99° |
| 2026-05-06 16:57 | 30.31297 | -96.43081 | 22993 ft | 468 kts | 99° |
| 2026-05-06 16:58 | 30.31052 | -96.39314 | 23416 ft | 472 kts | 99° |
| 2026-05-06 16:58 | 30.30803 | -96.35509 | 23729 ft | 475 kts | 99° |
| 2026-05-06 16:58 | 30.30553 | -96.31669 | 24071 ft | 479 kts | 99° |
| 2026-05-06 16:58 | 30.30302 | -96.27807 | 24396 ft | 482 kts | 99° |
| 2026-05-06 16:59 | 30.30050 | -96.23931 | 24650 ft | 485 kts | 99° |
| 2026-05-06 16:59 | 30.29794 | -96.20027 | 25020 ft | 489 kts | 99° |
| 2026-05-06 16:59 | 30.29535 | -96.16097 | 25411 ft | 491 kts | 99° |
| 2026-05-06 16:59 | 30.29449 | -96.12126 | 25713 ft | 499 kts | 90° |
| 2026-05-06 17:00 | 30.29917 | -96.08114 | 26037 ft | 506 kts | 79° |
| 2026-05-06 17:00 | 30.30948 | -96.04215 | 26360 ft | 511 kts | 68° |
| 2026-05-06 17:00 | 30.32537 | -96.00523 | 26672 ft | 513 kts | 57° |
| 2026-05-06 17:00 | 30.34607 | -95.97154 | 26954 ft | 514 kts | 50° |
| 2026-05-06 17:01 | 30.36793 | -95.93868 | 27261 ft | 517 kts | 50° |
| 2026-05-06 17:01 | 30.38988 | -95.90558 | 27604 ft | 519 kts | 50° |
| 2026-05-06 17:01 | 30.41187 | -95.87229 | 27907 ft | 522 kts | 50° |
| 2026-05-06 17:01 | 30.43399 | -95.83869 | 28247 ft | 525 kts | 50° |
| 2026-05-06 17:02 | 30.45612 | -95.80496 | 28587 ft | 528 kts | 50° |
| 2026-05-06 17:02 | 30.47839 | -95.77100 | 28930 ft | 531 kts | 50° |
| 2026-05-06 17:02 | 30.50077 | -95.73685 | 29184 ft | 533 kts | 50° |
| 2026-05-06 17:02 | 30.52326 | -95.70255 | 29442 ft | 536 kts | 50° |
| 2026-05-06 17:03 | 30.54587 | -95.66806 | 29697 ft | 538 kts | 50° |
| 2026-05-06 17:03 | 30.56857 | -95.63346 | 29981 ft | 540 kts | 50° |
| 2026-05-06 17:03 | 30.59135 | -95.59873 | 30198 ft | 543 kts | 50° |
| 2026-05-06 17:03 | 30.61407 | -95.56407 | 30424 ft | 545 kts | 50° |
| 2026-05-06 17:04 | 30.63703 | -95.52903 | 30694 ft | 545 kts | 50° |
| 2026-05-06 17:04 | 30.65994 | -95.49398 | 31040 ft | 545 kts | 50° |
| 2026-05-06 17:04 | 30.68279 | -95.45895 | 31428 ft | 544 kts | 50° |
| 2026-05-06 17:04 | 30.70559 | -95.42396 | 31761 ft | 544 kts | 50° |
| 2026-05-06 17:05 | 30.72845 | -95.38886 | 32093 ft | 544 kts | 49° |
| 2026-05-06 17:05 | 30.75128 | -95.35380 | 32427 ft | 543 kts | 49° |
| 2026-05-06 17:05 | 30.77408 | -95.31876 | 32810 ft | 543 kts | 49° |
| 2026-05-06 17:05 | 30.79681 | -95.28378 | 33191 ft | 542 kts | 49° |
| 2026-05-06 17:06 | 30.81953 | -95.24884 | 33541 ft | 542 kts | 49° |
| 2026-05-06 17:06 | 30.84227 | -95.21386 | 33878 ft | 541 kts | 49° |
| 2026-05-06 17:06 | 30.86494 | -95.17889 | 34169 ft | 542 kts | 49° |
| 2026-05-06 17:06 | 30.88765 | -95.14379 | 34382 ft | 543 kts | 49° |
| 2026-05-06 17:07 | 30.91039 | -95.10864 | 34637 ft | 543 kts | 49° |
| 2026-05-06 17:07 | 30.93312 | -95.07353 | 34904 ft | 543 kts | 49° |
| 2026-05-06 17:07 | 30.95585 | -95.03836 | 35196 ft | 543 kts | 49° |
| 2026-05-06 17:07 | 30.97844 | -95.00330 | 35467 ft | 542 kts | 49° |
| 2026-05-06 17:08 | 31.00109 | -94.96813 | 35742 ft | 542 kts | 49° |
| 2026-05-06 17:08 | 31.02367 | -94.93306 | 36025 ft | 541 kts | 49° |
| 2026-05-06 17:08 | 31.04624 | -94.89798 | 36326 ft | 540 kts | 49° |
| 2026-05-06 17:08 | 31.06872 | -94.86299 | 36602 ft | 539 kts | 49° |
| 2026-05-06 17:09 | 31.09124 | -94.82790 | 36849 ft | 539 kts | 49° |
| 2026-05-06 17:09 | 31.11369 | -94.79288 | 36961 ft | 538 kts | 50° |
| 2026-05-06 17:09 | 31.13420 | -94.75635 | 36975 ft | 539 kts | 59° |
| 2026-05-06 17:09 | 31.15006 | -94.71669 | 36979 ft | 540 kts | 70° |
| 2026-05-06 17:10 | 31.16096 | -94.67476 | 36947 ft | 539 kts | 79° |
| 2026-05-06 17:10 | 31.16889 | -94.58806 | 36915 ft | 539 kts | 90° |
| 2026-05-06 17:11 | 31.17323 | -94.50079 | 36914 ft | 539 kts | 90° |
| 2026-05-06 17:11 | 31.17768 | -94.41342 | 36921 ft | 539 kts | 90° |
| 2026-05-06 17:12 | 31.18187 | -94.32614 | 36923 ft | 539 kts | 90° |
| 2026-05-06 17:12 | 31.18600 | -94.23848 | 36921 ft | 545 kts | 90° |
| 2026-05-06 17:13 | 31.19012 | -94.14919 | 36926 ft | 555 kts | 90° |
| 2026-05-06 17:13 | 31.19437 | -94.05883 | 36929 ft | 558 kts | 90° |
| 2026-05-06 17:14 | 31.19864 | -93.96840 | 36930 ft | 558 kts | 90° |
| 2026-05-06 17:14 | 31.20275 | -93.87778 | 36931 ft | 558 kts | 90° |
| 2026-05-06 17:15 | 31.20666 | -93.78727 | 36920 ft | 558 kts | 89° |
| 2026-05-06 17:15 | 31.21061 | -93.69649 | 36932 ft | 559 kts | 90° |
| 2026-05-06 17:16 | 31.21445 | -93.60570 | 36933 ft | 560 kts | 90° |
| 2026-05-06 17:16 | 31.21825 | -93.51490 | 36946 ft | 560 kts | 90° |
| 2026-05-06 17:17 | 31.22214 | -93.42407 | 36964 ft | 560 kts | 90° |
| 2026-05-06 17:17 | 31.22593 | -93.33381 | 36969 ft | 560 kts | 90° |
| 2026-05-06 17:18 | 31.22951 | -93.24285 | 36975 ft | 560 kts | 90° |
| 2026-05-06 17:18 | 31.23297 | -93.15192 | 36976 ft | 560 kts | 90° |
| 2026-05-06 17:19 | 31.23644 | -93.06102 | 36974 ft | 560 kts | 90° |
| 2026-05-06 17:19 | 31.23995 | -92.97008 | 36966 ft | 560 kts | 90° |
| 2026-05-06 17:20 | 31.24342 | -92.87914 | 36973 ft | 560 kts | 90° |
| 2026-05-06 17:20 | 31.24669 | -92.78832 | 36985 ft | 560 kts | 90° |
| 2026-05-06 17:21 | 31.24991 | -92.69738 | 36990 ft | 560 kts | 90° |
| 2026-05-06 17:21 | 31.25309 | -92.60652 | 36997 ft | 560 kts | 90° |
| 2026-05-06 17:22 | 31.25813 | -92.51575 | 36991 ft | 561 kts | 81° |
| 2026-05-06 17:22 | 31.27992 | -92.42904 | 36991 ft | 560 kts | 68° |
| 2026-05-06 17:23 | 31.30745 | -92.34390 | 36986 ft | 560 kts | 68° |
| 2026-05-06 17:23 | 31.33456 | -92.25851 | 36972 ft | 560 kts | 68° |
| 2026-05-06 17:24 | 31.36164 | -92.17307 | 36985 ft | 560 kts | 68° |
| 2026-05-06 17:24 | 31.38880 | -92.08769 | 36985 ft | 559 kts | 68° |
| 2026-05-06 17:25 | 31.41588 | -92.00237 | 36981 ft | 559 kts | 68° |
| 2026-05-06 17:25 | 31.44296 | -91.91691 | 36973 ft | 559 kts | 68° |
| 2026-05-06 17:26 | 31.46990 | -91.83147 | 36973 ft | 559 kts | 68° |
| 2026-05-06 17:26 | 31.49663 | -91.74658 | 36979 ft | 558 kts | 68° |
| 2026-05-06 17:27 | 31.52343 | -91.66116 | 37007 ft | 558 kts | 68° |
| 2026-05-06 17:27 | 31.55010 | -91.57566 | 37003 ft | 559 kts | 68° |
| 2026-05-06 17:28 | 31.57674 | -91.49018 | 37012 ft | 558 kts | 68° |
| 2026-05-06 17:28 | 31.60342 | -91.40449 | 37035 ft | 558 kts | 68° |
| 2026-05-06 17:29 | 31.62995 | -91.31911 | 37020 ft | 557 kts | 68° |
| 2026-05-06 17:29 | 31.65646 | -91.23384 | 36984 ft | 556 kts | 68° |
| 2026-05-06 17:30 | 31.68267 | -91.14896 | 36989 ft | 556 kts | 68° |
| 2026-05-06 17:30 | 31.70890 | -91.06355 | 36997 ft | 555 kts | 68° |
| 2026-05-06 17:31 | 31.73066 | -90.99256 | 36997 ft | 555 kts | 68° |
| 2026-05-06 17:31 | 31.75675 | -90.90743 | 37008 ft | 554 kts | 68° |
| 2026-05-06 17:32 | 31.78280 | -90.82217 | 37003 ft | 553 kts | 68° |
| 2026-05-06 17:32 | 31.80879 | -90.73686 | 36986 ft | 555 kts | 68° |
| 2026-05-06 17:33 | 31.83476 | -90.65155 | 36984 ft | 554 kts | 68° |
| 2026-05-06 17:33 | 31.86062 | -90.56600 | 36991 ft | 555 kts | 68° |
| 2026-05-06 17:34 | 31.88645 | -90.48037 | 36995 ft | 556 kts | 68° |
| 2026-05-06 17:34 | 31.91228 | -90.39458 | 37003 ft | 556 kts | 69° |
| 2026-05-06 17:35 | 31.93791 | -90.30943 | 37021 ft | 555 kts | 68° |
| 2026-05-06 17:35 | 31.96380 | -90.22313 | 37023 ft | 555 kts | 69° |
| 2026-05-06 17:36 | 32.00222 | -90.09459 | 37016 ft | 554 kts | 69° |
| 2026-05-06 17:36 | 32.02757 | -90.00934 | 37013 ft | 554 kts | 69° |
| 2026-05-06 17:37 | 32.05297 | -89.92366 | 37015 ft | 554 kts | 68° |
| 2026-05-06 17:37 | 32.07835 | -89.83782 | 37009 ft | 554 kts | 68° |
| 2026-05-06 17:38 | 32.10365 | -89.75206 | 36990 ft | 554 kts | 68° |
| 2026-05-06 17:38 | 32.12895 | -89.66620 | 36973 ft | 553 kts | 68° |
| 2026-05-06 17:39 | 32.15411 | -89.58039 | 36974 ft | 554 kts | 69° |
| 2026-05-06 17:39 | 32.17928 | -89.49443 | 36964 ft | 554 kts | 69° |
| 2026-05-06 17:40 | 32.20015 | -89.42295 | 36949 ft | 554 kts | 69° |
| 2026-05-06 17:41 | 32.22070 | -89.34951 | 36937 ft | 554 kts | 69° |
| 2026-05-06 17:41 | 32.24577 | -89.26344 | 36939 ft | 554 kts | 68° |
| 2026-05-06 17:42 | 32.27148 | -89.17697 | 36932 ft | 554 kts | 68° |
| 2026-05-06 17:42 | 32.29637 | -89.09151 | 36915 ft | 554 kts | 69° |
| 2026-05-06 17:43 | 32.32103 | -89.00521 | 36984 ft | 554 kts | 69° |
| 2026-05-06 17:43 | 32.34566 | -88.91882 | 36985 ft | 554 kts | 69° |
| 2026-05-06 17:44 | 32.37027 | -88.83261 | 37002 ft | 553 kts | 69° |
| 2026-05-06 17:44 | 32.39021 | -88.74449 | 37038 ft | 556 kts | 75° |
| 2026-05-06 17:45 | 32.40735 | -88.65529 | 37024 ft | 556 kts | 76° |
| 2026-05-06 17:45 | 32.42439 | -88.56587 | 37035 ft | 556 kts | 76° |
| 2026-05-06 17:46 | 32.44146 | -88.47655 | 37032 ft | 556 kts | 76° |
| 2026-05-06 17:46 | 32.45860 | -88.38721 | 37047 ft | 556 kts | 75° |
| 2026-05-06 17:47 | 32.47561 | -88.29786 | 37046 ft | 556 kts | 75° |
| 2026-05-06 17:47 | 32.49246 | -88.20862 | 37050 ft | 556 kts | 76° |
| 2026-05-06 17:48 | 32.50755 | -88.12840 | 37046 ft | 556 kts | 76° |
| 2026-05-06 17:48 | 32.52428 | -88.03898 | 37058 ft | 556 kts | 75° |
| 2026-05-06 17:49 | 32.54080 | -87.95001 | 37046 ft | 556 kts | 75° |
| 2026-05-06 17:49 | 32.55762 | -87.86056 | 37042 ft | 556 kts | 75° |
| 2026-05-06 17:50 | 32.57462 | -87.77121 | 37042 ft | 556 kts | 75° |
| 2026-05-06 17:50 | 32.59145 | -87.68161 | 37039 ft | 556 kts | 75° |
| 2026-05-06 17:51 | 32.60817 | -87.59140 | 37043 ft | 558 kts | 75° |
| 2026-05-06 17:51 | 32.62463 | -87.50197 | 37030 ft | 559 kts | 75° |
| 2026-05-06 17:52 | 32.64123 | -87.41178 | 37032 ft | 559 kts | 75° |
| 2026-05-06 17:52 | 32.65790 | -87.32167 | 37033 ft | 560 kts | 75° |
| 2026-05-06 17:53 | 32.67446 | -87.23135 | 37037 ft | 560 kts | 75° |
| 2026-05-06 17:53 | 32.69088 | -87.14094 | 37039 ft | 560 kts | 75° |
| 2026-05-06 17:54 | 32.70732 | -87.05052 | 37036 ft | 560 kts | 75° |
| 2026-05-06 17:54 | 32.72365 | -86.96002 | 37038 ft | 560 kts | 76° |
| 2026-05-06 17:55 | 32.73988 | -86.86947 | 37048 ft | 560 kts | 75° |
| 2026-05-06 17:55 | 32.75605 | -86.77933 | 36871 ft | 554 kts | 75° |
| 2026-05-06 17:56 | 32.76399 | -86.73493 | 36615 ft | 544 kts | 75° |
| 2026-05-06 17:56 | 32.77175 | -86.69128 | 36373 ft | 538 kts | 75° |
| 2026-05-06 17:56 | 32.77944 | -86.64790 | 36121 ft | 535 kts | 75° |
| 2026-05-06 17:56 | 32.78709 | -86.60463 | 35876 ft | 534 kts | 75° |
| 2026-05-06 17:57 | 32.79474 | -86.56150 | 35636 ft | 533 kts | 76° |
| 2026-05-06 17:57 | 32.80238 | -86.51846 | 35399 ft | 531 kts | 76° |
| 2026-05-06 17:57 | 32.80997 | -86.47560 | 35166 ft | 531 kts | 76° |
| 2026-05-06 17:57 | 32.81754 | -86.43261 | 34923 ft | 530 kts | 76° |
| 2026-05-06 17:58 | 32.82506 | -86.38983 | 34700 ft | 529 kts | 76° |
| 2026-05-06 17:58 | 32.83256 | -86.34704 | 34480 ft | 528 kts | 76° |
| 2026-05-06 17:58 | 32.84002 | -86.30433 | 34272 ft | 527 kts | 76° |
| 2026-05-06 17:58 | 32.84743 | -86.26172 | 33698 ft | 526 kts | 76° |
| 2026-05-06 17:59 | 32.85482 | -86.21921 | 33135 ft | 523 kts | 76° |
| 2026-05-06 17:59 | 32.86212 | -86.17704 | 32555 ft | 521 kts | 76° |
| 2026-05-06 17:59 | 32.86941 | -86.13482 | 31973 ft | 519 kts | 76° |
| 2026-05-06 17:59 | 32.87661 | -86.09302 | 31370 ft | 518 kts | 77° |
| 2026-05-06 18:00 | 32.88382 | -86.05117 | 30776 ft | 516 kts | 77° |
| 2026-05-06 18:00 | 32.89110 | -86.00913 | 30178 ft | 515 kts | 77° |
| 2026-05-06 18:00 | 32.89831 | -85.96751 | 29518 ft | 513 kts | 77° |
| 2026-05-06 18:00 | 32.90543 | -85.92617 | 28947 ft | 508 kts | 77° |
| 2026-05-06 18:01 | 32.91237 | -85.88560 | 28364 ft | 505 kts | 77° |
| 2026-05-06 18:01 | 32.91943 | -85.84421 | 27776 ft | 501 kts | 77° |
| 2026-05-06 18:01 | 32.92629 | -85.80376 | 27203 ft | 497 kts | 77° |
| 2026-05-06 18:01 | 32.93310 | -85.76347 | 26636 ft | 494 kts | 77° |
| 2026-05-06 18:02 | 32.93975 | -85.72408 | 26079 ft | 491 kts | 77° |
| 2026-05-06 18:02 | 32.94646 | -85.68428 | 25520 ft | 488 kts | 77° |
| 2026-05-06 18:02 | 32.95326 | -85.64422 | 24960 ft | 486 kts | 77° |
| 2026-05-06 18:02 | 32.95994 | -85.60492 | 24422 ft | 483 kts | 77° |
| 2026-05-06 18:03 | 32.96646 | -85.56636 | 23906 ft | 480 kts | 77° |
| 2026-05-06 18:03 | 32.97299 | -85.52753 | 23344 ft | 477 kts | 77° |
| 2026-05-06 18:03 | 32.97943 | -85.48901 | 22844 ft | 471 kts | 77° |
| 2026-05-06 18:03 | 32.98578 | -85.45104 | 22367 ft | 464 kts | 77° |
| 2026-05-06 18:04 | 32.99202 | -85.41349 | 21885 ft | 458 kts | 77° |
| 2026-05-06 18:04 | 32.99812 | -85.37658 | 21444 ft | 452 kts | 77° |
| 2026-05-06 18:04 | 33.00414 | -85.34012 | 20997 ft | 446 kts | 77° |
| 2026-05-06 18:04 | 33.01011 | -85.30402 | 20544 ft | 442 kts | 77° |
| 2026-05-06 18:05 | 33.01623 | -85.26839 | 20090 ft | 437 kts | 73° |
| 2026-05-06 18:05 | 33.02601 | -85.23457 | 19627 ft | 429 kts | 62° |
| 2026-05-06 18:05 | 33.04035 | -85.20400 | 19170 ft | 421 kts | 51° |
| 2026-05-06 18:05 | 33.05917 | -85.17788 | 18822 ft | 415 kts | 40° |
| 2026-05-06 18:06 | 33.07943 | -85.15309 | 18625 ft | 418 kts | 40° |
| 2026-05-06 18:06 | 33.09965 | -85.12797 | 18402 ft | 418 kts | 41° |
| 2026-05-06 18:06 | 33.11968 | -85.10298 | 18155 ft | 417 kts | 41° |
| 2026-05-06 18:06 | 33.13972 | -85.07801 | 17893 ft | 416 kts | 41° |
| 2026-05-06 18:07 | 33.15967 | -85.05324 | 17649 ft | 414 kts | 41° |
| 2026-05-06 18:07 | 33.17963 | -85.02850 | 17385 ft | 413 kts | 40° |
| 2026-05-06 18:07 | 33.19959 | -85.00384 | 17134 ft | 411 kts | 40° |
| 2026-05-06 18:07 | 33.21938 | -84.97941 | 16886 ft | 410 kts | 40° |
| 2026-05-06 18:08 | 33.23910 | -84.95507 | 16645 ft | 408 kts | 41° |
| 2026-05-06 18:08 | 33.25893 | -84.93056 | 16397 ft | 407 kts | 41° |
| 2026-05-06 18:08 | 33.27839 | -84.90647 | 16154 ft | 405 kts | 41° |
| 2026-05-06 18:08 | 33.29803 | -84.88213 | 15912 ft | 404 kts | 41° |
| 2026-05-06 18:09 | 33.31757 | -84.85789 | 15667 ft | 402 kts | 41° |
| 2026-05-06 18:09 | 33.33680 | -84.83402 | 15423 ft | 397 kts | 41° |
| 2026-05-06 18:09 | 33.35584 | -84.81038 | 15191 ft | 394 kts | 41° |
| 2026-05-06 18:09 | 33.37480 | -84.78679 | 14963 ft | 393 kts | 41° |
| 2026-05-06 18:10 | 33.39338 | -84.76365 | 14727 ft | 391 kts | 42° |
| 2026-05-06 18:10 | 33.41242 | -84.73994 | 14487 ft | 390 kts | 42° |
| 2026-05-06 18:10 | 33.43096 | -84.71685 | 14266 ft | 389 kts | 42° |
| 2026-05-06 18:10 | 33.44990 | -84.69324 | 14010 ft | 387 kts | 42° |
| 2026-05-06 18:11 | 33.46853 | -84.66998 | 13763 ft | 386 kts | 42° |
| 2026-05-06 18:11 | 33.48094 | -84.65447 | 13592 ft | 385 kts | 42° |
| 2026-05-06 18:11 | 33.50501 | -84.62360 | 13249 ft | 384 kts | 47° |
| 2026-05-06 18:11 | 33.52005 | -84.59664 | 12995 ft | 386 kts | 60° |
| 2026-05-06 18:12 | 33.53033 | -84.56737 | 12751 ft | 386 kts | 72° |
| 2026-05-06 18:12 | 33.53594 | -84.53599 | 12505 ft | 385 kts | 84° |
| 2026-05-06 18:12 | 33.53694 | -84.50397 | 12261 ft | 383 kts | 91° |
| 2026-05-06 18:12 | 33.53692 | -84.47216 | 12050 ft | 381 kts | 91° |
| 2026-05-06 18:13 | 33.53687 | -84.44033 | 11857 ft | 383 kts | 92° |
| 2026-05-06 18:13 | 33.53684 | -84.40835 | 11617 ft | 383 kts | 91° |
| 2026-05-06 18:13 | 33.53688 | -84.37661 | 11373 ft | 381 kts | 91° |
| 2026-05-06 18:13 | 33.53694 | -84.34478 | 11153 ft | 381 kts | 91° |
| 2026-05-06 18:14 | 33.53697 | -84.31311 | 10918 ft | 379 kts | 92° |
| 2026-05-06 18:14 | 33.53699 | -84.28162 | 10677 ft | 377 kts | 92° |
| 2026-05-06 18:14 | 33.53702 | -84.25039 | 10434 ft | 374 kts | 92° |
| 2026-05-06 18:14 | 33.53702 | -84.21931 | 10208 ft | 372 kts | 92° |
| 2026-05-06 18:15 | 33.53702 | -84.19845 | 10052 ft | 371 kts | 92° |
| 2026-05-06 18:15 | 33.53705 | -84.16825 | 9879 ft | 358 kts | 92° |
| 2026-05-06 18:15 | 33.53708 | -84.13977 | 9601 ft | 334 kts | 92° |
| 2026-05-06 18:15 | 33.53709 | -84.11236 | 8963 ft | 325 kts | 92° |
| 2026-05-06 18:16 | 33.53707 | -84.08551 | 8239 ft | 319 kts | 92° |
| 2026-05-06 18:16 | 33.53710 | -84.05911 | 7509 ft | 314 kts | 91° |
| 2026-05-06 18:16 | 33.53723 | -84.03328 | 6830 ft | 309 kts | 90° |
| 2026-05-06 18:16 | 33.53823 | -84.00780 | 6134 ft | 304 kts | 77° |
| 2026-05-06 18:17 | 33.54668 | -83.98520 | 5474 ft | 295 kts | 48° |
| 2026-05-06 18:17 | 33.56204 | -83.96998 | 4771 ft | 284 kts | 22° |
| 2026-05-06 18:17 | 33.58068 | -83.96399 | 4033 ft | 273 kts | 358° |
| 2026-05-06 18:17 | 33.59880 | -83.96712 | 3497 ft | 254 kts | 333° |
| 2026-05-06 18:18 | 33.61306 | -83.97691 | 3388 ft | 222 kts | 314° |
| 2026-05-06 18:18 | 33.62301 | -83.99019 | 3426 ft | 218 kts | 298° |
| 2026-05-06 18:18 | 33.62935 | -84.00680 | 3406 ft | 220 kts | 282° |
| 2026-05-06 18:18 | 33.63117 | -84.02486 | 3401 ft | 218 kts | 267° |
| 2026-05-06 18:19 | 33.63120 | -84.04300 | 3392 ft | 218 kts | 267° |
| 2026-05-06 18:19 | 33.63126 | -84.06116 | 3396 ft | 217 kts | 267° |
| 2026-05-06 18:19 | 33.63132 | -84.07937 | 3390 ft | 219 kts | 267° |
| 2026-05-06 18:19 | 33.63137 | -84.09771 | 3393 ft | 220 kts | 267° |
| 2026-05-06 18:20 | 33.63142 | -84.11600 | 3391 ft | 218 kts | 267° |
| 2026-05-06 18:20 | 33.63146 | -84.13425 | 3390 ft | 219 kts | 266° |
| 2026-05-06 18:20 | 33.63150 | -84.15244 | 3390 ft | 217 kts | 268° |
| 2026-05-06 18:20 | 33.63154 | -84.17059 | 3389 ft | 218 kts | 268° |
| 2026-05-06 18:21 | 33.63158 | -84.18871 | 3401 ft | 211 kts | 266° |
| 2026-05-06 18:21 | 33.63164 | -84.20547 | 3403 ft | 190 kts | 266° |
| 2026-05-06 18:21 | 33.63168 | -84.22041 | 3409 ft | 167 kts | 266° |
| 2026-05-06 18:21 | 33.63170 | -84.23335 | 3396 ft | 148 kts | 266° |
| 2026-05-06 18:22 | 33.63171 | -84.24503 | 3385 ft | 133 kts | 265° |
| 2026-05-06 18:22 | 33.63172 | -84.25594 | 3384 ft | 129 kts | 266° |
| 2026-05-06 18:22 | 33.63173 | -84.26641 | 3430 ft | 125 kts | 265° |
| 2026-05-06 18:22 | 33.63173 | -84.27684 | 3280 ft | 125 kts | 263° |
| 2026-05-06 18:23 | 33.63174 | -84.28732 | 3119 ft | 125 kts | 265° |
| 2026-05-06 18:23 | 33.63176 | -84.29757 | 2966 ft | 121 kts | 264° |
| 2026-05-06 18:23 | 33.63176 | -84.30768 | 2801 ft | 122 kts | 264° |
| 2026-05-06 18:23 | 33.63177 | -84.31786 | 2652 ft | 121 kts | 264° |
| 2026-05-06 18:24 | 33.63178 | -84.32820 | 2500 ft | 126 kts | 264° |
| 2026-05-06 18:24 | 33.63178 | -84.33867 | 2338 ft | 125 kts | 263° |
| 2026-05-06 18:24 | 33.63179 | -84.34906 | 2169 ft | 124 kts | 263° |
| 2026-05-06 18:24 | 33.63180 | -84.35954 | 2010 ft | 126 kts | 263° |
| 2026-05-06 18:25 | 33.63180 | -84.37006 | 1832 ft | 124 kts | 262° |
| 2026-05-06 18:25 | 33.63181 | -84.38043 | 1684 ft | 127 kts | 261° |
| 2026-05-06 18:25 | 33.63180 | -84.39109 | 1495 ft | 128 kts | 261° |
| 2026-05-06 18:25 | 33.63192 | -84.40175 | 1376 ft | 128 kts | 258° |
| 2026-05-06 18:26 | 33.63194 | -84.41257 | 1177 ft | 131 kts | 260° |
| 2026-05-06 18:26 | 33.63181 | -84.42352 | 1017 ft | 126 kts | 263° |
| 2026-05-06 18:26 | 33.63192 | -84.43446 | 1492 ft | 141 kts | 265° |
| 2026-05-06 18:26 | 33.63215 | -84.44636 | 2387 ft | 143 kts | 265° |
| 2026-05-06 18:27 | 33.63240 | -84.45873 | 2984 ft | 156 kts | 266° |
| 2026-05-06 18:27 | 33.63261 | -84.47251 | 3146 ft | 175 kts | 265° |
| 2026-05-06 18:27 | 33.63265 | -84.48734 | 3361 ft | 183 kts | 265° |
| 2026-05-06 18:27 | 33.62953 | -84.50227 | 3792 ft | 182 kts | 240° |
| 2026-05-06 18:28 | 33.62059 | -84.51268 | 3976 ft | 186 kts | 210° |
| 2026-05-06 18:28 | 33.60917 | -84.51984 | 4005 ft | 184 kts | 215° |
| 2026-05-06 18:28 | 33.59925 | -84.52830 | 4008 ft | 183 kts | 218° |
| 2026-05-06 18:28 | 33.58979 | -84.53695 | 4010 ft | 181 kts | 219° |
| 2026-05-06 18:29 | 33.57857 | -84.54376 | 4006 ft | 187 kts | 196° |
| 2026-05-06 18:29 | 33.56550 | -84.54196 | 4002 ft | 199 kts | 161° |
| 2026-05-06 18:29 | 33.55556 | -84.53009 | 3994 ft | 212 kts | 120° |
| 2026-05-06 18:29 | 33.55157 | -84.51279 | 4008 ft | 217 kts | 107° |
| 2026-05-06 18:30 | 33.54835 | -84.49507 | 4005 ft | 217 kts | 106° |
| 2026-05-06 18:30 | 33.54524 | -84.47748 | 4005 ft | 214 kts | 106° |
| 2026-05-06 18:30 | 33.54216 | -84.46003 | 4009 ft | 215 kts | 107° |
| 2026-05-06 18:30 | 33.53945 | -84.44485 | 4008 ft | 215 kts | 106° |
| 2026-05-06 18:31 | 33.53685 | -84.42709 | 4005 ft | 220 kts | 95° |
| 2026-05-06 18:31 | 33.53688 | -84.40870 | 4007 ft | 221 kts | 92° |
| 2026-05-06 18:31 | 33.53690 | -84.39031 | 4012 ft | 219 kts | 94° |
| 2026-05-06 18:31 | 33.53689 | -84.37209 | 4023 ft | 219 kts | 94° |
| 2026-05-06 18:32 | 33.53691 | -84.35389 | 4023 ft | 218 kts | 93° |
| 2026-05-06 18:32 | 33.53690 | -84.33585 | 4026 ft | 219 kts | 93° |
| 2026-05-06 18:32 | 33.53686 | -84.31751 | 4026 ft | 220 kts | 94° |
| 2026-05-06 18:32 | 33.53686 | -84.29941 | 3774 ft | 216 kts | 94° |
| 2026-05-06 18:33 | 33.53690 | -84.28144 | 3301 ft | 215 kts | 92° |
| 2026-05-06 18:33 | 33.53694 | -84.26654 | 3046 ft | 214 kts | 94° |
| 2026-05-06 18:33 | 33.53715 | -84.24865 | 3021 ft | 216 kts | 88° |
| 2026-05-06 18:33 | 33.54221 | -84.23164 | 3020 ft | 220 kts | 55° |
| 2026-05-06 18:34 | 33.55382 | -84.21998 | 3028 ft | 221 kts | 22° |
| 2026-05-06 18:34 | 33.56871 | -84.21671 | 3029 ft | 216 kts | 357° |
| 2026-05-06 18:34 | 33.58364 | -84.21614 | 3009 ft | 214 kts | 357° |
| 2026-05-06 18:34 | 33.59818 | -84.21707 | 2997 ft | 200 kts | 342° |
| 2026-05-06 18:35 | 33.61015 | -84.22240 | 3004 ft | 168 kts | 326° |
| 2026-05-06 18:35 | 33.61893 | -84.23007 | 2992 ft | 150 kts | 309° |
| 2026-05-06 18:35 | 33.62537 | -84.23940 | 2996 ft | 141 kts | 294° |
| 2026-05-06 18:35 | 33.62957 | -84.24976 | 2997 ft | 136 kts | 282° |
| 2026-05-06 18:36 | 33.63155 | -84.26066 | 2993 ft | 134 kts | 271° |
| 2026-05-06 18:36 | 33.63171 | -84.27187 | 3002 ft | 135 kts | 266° |
| 2026-05-06 18:36 | 33.63173 | -84.28299 | 3000 ft | 133 kts | 264° |
| 2026-05-06 18:36 | 33.63174 | -84.29411 | 2939 ft | 133 kts | 264° |
| 2026-05-06 18:37 | 33.63176 | -84.30520 | 2817 ft | 132 kts | 264° |
| 2026-05-06 18:37 | 33.63177 | -84.31618 | 2660 ft | 133 kts | 265° |
| 2026-05-06 18:37 | 33.63178 | -84.32721 | 2501 ft | 134 kts | 264° |
| 2026-05-06 18:37 | 33.63178 | -84.33843 | 2330 ft | 135 kts | 264° |
| 2026-05-06 18:38 | 33.63179 | -84.34972 | 2149 ft | 137 kts | 261° |
| 2026-05-06 18:38 | 33.63180 | -84.36116 | 1979 ft | 136 kts | 262° |
| 2026-05-06 18:38 | 33.63180 | -84.37247 | 1805 ft | 133 kts | 264° |
| 2026-05-06 18:38 | 33.63185 | -84.38355 | 1627 ft | 134 kts | 262° |
| 2026-05-06 18:39 | 33.63182 | -84.39502 | 1494 ft | 138 kts | 263° |
| 2026-05-06 18:39 | 33.63204 | -84.40656 | 1309 ft | 135 kts | 253° |
| 2026-05-06 18:39 | 33.63194 | -84.41794 | 1079 ft | 136 kts | 259° |
| 2026-05-06 18:40 | 33.63172 | -84.43550 | 1008 ft | 48 kts | 274° |
| 2026-05-06 18:40 | 33.63178 | -84.43802 | 1005 ft | 27 kts | 270° |
| 2026-05-06 18:40 | 33.63188 | -84.44046 | 1005 ft | 30 kts | 278° |
| 2026-05-06 18:40 | 33.63249 | -84.44211 | 1006 ft | 15 kts | 304° |
| 2026-05-06 18:41 | 33.63327 | -84.44261 | 1006 ft | 13 kts | 15° |
| 2026-05-06 18:41 | 33.63394 | -84.44199 | 1006 ft | 12 kts | 24° |
| 2026-05-06 18:41 | 33.63500 | -84.44190 | 1007 ft | 22 kts | 360° |
| 2026-05-06 18:41 | 33.63581 | -84.44140 | 1007 ft | 13 kts | 70° |
| 2026-05-06 18:42 | 33.63582 | -84.44016 | 1007 ft | 20 kts | 91° |
| 2026-05-06 18:42 | 33.63581 | -84.43789 | 1007 ft | 34 kts | 90° |
| 2026-05-06 18:42 | 33.63582 | -84.43488 | 1006 ft | 36 kts | 89° |
| 2026-05-06 18:42 | 33.63581 | -84.43191 | 1006 ft | 28 kts | 91° |
| 2026-05-06 18:43 | 33.63578 | -84.42979 | 1006 ft | 25 kts | 90° |
| 2026-05-06 18:43 | 33.63593 | -84.42790 | 1006 ft | 20 kts | 55° |
| 2026-05-06 18:43 | 33.63700 | -84.42803 | 1006 ft | 16 kts | 344° |
| 2026-05-06 18:43 | 33.63807 | -84.42805 | 1006 ft | 15 kts | 1° |
| 2026-05-06 18:44 | 33.63929 | -84.42805 | 1006 ft | 22 kts | 0° |
| 2026-05-06 18:44 | 33.64097 | -84.42806 | 1007 ft | 19 kts | 359° |
| 2026-05-06 18:44 | 33.64144 | -84.42846 | 1006 ft | 8 kts | 283° |
| 2026-05-06 18:44 | 33.64150 | -84.42877 | 1006 ft | 0 kts | 283° |